sensor_id;sensor_type;location;lat;lon;timestamp;P1;durP1;ratioP1;P2;durP2;ratioP2
67108;SDS011;54027;50.786;7.058;2024-02-28T00:01:38;75.68;;;36.30;;
67108;SDS011;54027;50.786;7.058;2024-02-28T00:04:03;77.38;;;37.88;;
67108;SDS011;54027;50.786;7.058;2024-02-28T00:06:28;74.65;;;35.78;;
67108;SDS011;54027;50.786;7.058;2024-02-28T00:08:54;77.28;;;37.58;;
67108;SDS011;54027;50.786;7.058;2024-02-28T00:11:20;74.63;;;37.08;;
67108;SDS011;54027;50.786;7.058;2024-02-28T00:13:45;75.28;;;36.95;;
67108;SDS011;54027;50.786;7.058;2024-02-28T00:16:11;72.63;;;35.75;;
67108;SDS011;54027;50.786;7.058;2024-02-28T00:18:36;79.90;;;38.15;;
67108;SDS011;54027;50.786;7.058;2024-02-28T00:21:02;75.47;;;37.80;;
67108;SDS011;54027;50.786;7.058;2024-02-28T00:23:28;77.10;;;36.15;;
67108;SDS011;54027;50.786;7.058;2024-02-28T00:25:54;78.75;;;38.72;;
67108;SDS011;54027;50.786;7.058;2024-02-28T00:28:19;80.05;;;37.97;;
67108;SDS011;54027;50.786;7.058;2024-02-28T00:30:45;80.85;;;37.58;;
67108;SDS011;54027;50.786;7.058;2024-02-28T00:33:10;75.85;;;36.83;;
67108;SDS011;54027;50.786;7.058;2024-02-28T00:35:35;79.45;;;37.90;;
67108;SDS011;54027;50.786;7.058;2024-02-28T00:38:01;79.72;;;36.60;;
67108;SDS011;54027;50.786;7.058;2024-02-28T00:40:27;73.90;;;35.65;;
67108;SDS011;54027;50.786;7.058;2024-02-28T00:42:53;77.00;;;39.40;;
67108;SDS011;54027;50.786;7.058;2024-02-28T00:45:19;73.32;;;36.05;;
67108;SDS011;54027;50.786;7.058;2024-02-28T00:47:44;82.00;;;38.83;;
67108;SDS011;54027;50.786;7.058;2024-02-28T00:50:09;80.60;;;37.13;;
67108;SDS011;54027;50.786;7.058;2024-02-28T00:52:36;82.00;;;38.33;;
67108;SDS011;54027;50.786;7.058;2024-02-28T00:55:01;83.43;;;38.83;;
67108;SDS011;54027;50.786;7.058;2024-02-28T00:57:28;82.78;;;39.13;;
67108;SDS011;54027;50.786;7.058;2024-02-28T00:59:53;84.28;;;38.83;;
67108;SDS011;54027;50.786;7.058;2024-02-28T01:02:19;90.30;;;41.35;;
67108;SDS011;54027;50.786;7.058;2024-02-28T01:04:45;86.88;;;40.05;;
67108;SDS011;54027;50.786;7.058;2024-02-28T01:07:10;86.80;;;38.72;;
67108;SDS011;54027;50.786;7.058;2024-02-28T01:09:36;85.22;;;39.75;;
67108;SDS011;54027;50.786;7.058;2024-02-28T01:12:01;86.70;;;40.70;;
67108;SDS011;54027;50.786;7.058;2024-02-28T01:14:27;86.90;;;39.67;;
67108;SDS011;54027;50.786;7.058;2024-02-28T01:16:52;75.10;;;37.08;;
67108;SDS011;54027;50.786;7.058;2024-02-28T01:19:17;90.13;;;41.40;;
67108;SDS011;54027;50.786;7.058;2024-02-28T01:21:43;86.43;;;40.90;;
67108;SDS011;54027;50.786;7.058;2024-02-28T01:24:08;87.78;;;39.55;;
67108;SDS011;54027;50.786;7.058;2024-02-28T01:26:34;96.75;;;43.95;;
67108;SDS011;54027;50.786;7.058;2024-02-28T01:28:59;86.38;;;40.63;;
67108;SDS011;54027;50.786;7.058;2024-02-28T01:31:25;91.40;;;41.40;;
67108;SDS011;54027;50.786;7.058;2024-02-28T01:33:50;92.00;;;40.97;;
67108;SDS011;54027;50.786;7.058;2024-02-28T01:36:15;88.18;;;41.67;;
67108;SDS011;54027;50.786;7.058;2024-02-28T01:38:41;87.63;;;42.42;;
67108;SDS011;54027;50.786;7.058;2024-02-28T01:41:06;90.50;;;40.88;;
67108;SDS011;54027;50.786;7.058;2024-02-28T01:43:31;96.03;;;43.20;;
67108;SDS011;54027;50.786;7.058;2024-02-28T01:45:59;88.20;;;40.78;;
67108;SDS011;54027;50.786;7.058;2024-02-28T01:48:28;86.47;;;39.45;;
67108;SDS011;54027;50.786;7.058;2024-02-28T01:50:53;90.30;;;40.42;;
67108;SDS011;54027;50.786;7.058;2024-02-28T01:53:19;90.75;;;42.40;;
67108;SDS011;54027;50.786;7.058;2024-02-28T01:55:45;94.40;;;42.45;;
67108;SDS011;54027;50.786;7.058;2024-02-28T01:58:10;83.75;;;39.03;;
67108;SDS011;54027;50.786;7.058;2024-02-28T02:00:36;88.10;;;40.17;;
67108;SDS011;54027;50.786;7.058;2024-02-28T02:03:02;87.03;;;40.17;;
67108;SDS011;54027;50.786;7.058;2024-02-28T02:05:28;84.95;;;41.60;;
67108;SDS011;54027;50.786;7.058;2024-02-28T02:07:55;90.75;;;41.47;;
67108;SDS011;54027;50.786;7.058;2024-02-28T02:10:22;94.53;;;42.05;;
67108;SDS011;54027;50.786;7.058;2024-02-28T02:12:48;90.13;;;41.20;;
67108;SDS011;54027;50.786;7.058;2024-02-28T02:15:13;82.07;;;39.22;;
67108;SDS011;54027;50.786;7.058;2024-02-28T02:17:39;85.03;;;39.50;;
67108;SDS011;54027;50.786;7.058;2024-02-28T02:20:04;92.20;;;41.25;;
67108;SDS011;54027;50.786;7.058;2024-02-28T02:22:33;91.13;;;40.35;;
67108;SDS011;54027;50.786;7.058;2024-02-28T02:25:07;92.95;;;41.38;;
67108;SDS011;54027;50.786;7.058;2024-02-28T02:27:32;85.00;;;41.40;;
67108;SDS011;54027;50.786;7.058;2024-02-28T02:29:58;91.10;;;40.67;;
67108;SDS011;54027;50.786;7.058;2024-02-28T02:32:23;94.95;;;42.60;;
67108;SDS011;54027;50.786;7.058;2024-02-28T02:34:48;84.80;;;40.38;;
67108;SDS011;54027;50.786;7.058;2024-02-28T02:37:14;88.28;;;40.60;;
67108;SDS011;54027;50.786;7.058;2024-02-28T02:39:39;98.47;;;42.50;;
67108;SDS011;54027;50.786;7.058;2024-02-28T02:42:05;85.22;;;39.80;;
67108;SDS011;54027;50.786;7.058;2024-02-28T02:44:30;89.53;;;40.92;;
67108;SDS011;54027;50.786;7.058;2024-02-28T02:46:56;86.55;;;40.95;;
67108;SDS011;54027;50.786;7.058;2024-02-28T02:49:21;91.10;;;41.47;;
67108;SDS011;54027;50.786;7.058;2024-02-28T02:51:46;89.22;;;40.92;;
67108;SDS011;54027;50.786;7.058;2024-02-28T02:54:12;87.93;;;39.90;;
67108;SDS011;54027;50.786;7.058;2024-02-28T02:56:37;92.53;;;41.03;;
67108;SDS011;54027;50.786;7.058;2024-02-28T02:59:06;98.53;;;40.67;;
67108;SDS011;54027;50.786;7.058;2024-02-28T03:01:31;91.88;;;40.40;;
67108;SDS011;54027;50.786;7.058;2024-02-28T03:03:57;88.50;;;41.13;;
67108;SDS011;54027;50.786;7.058;2024-02-28T03:06:22;87.75;;;39.88;;
67108;SDS011;54027;50.786;7.058;2024-02-28T03:08:49;89.93;;;40.83;;
67108;SDS011;54027;50.786;7.058;2024-02-28T03:11:14;92.82;;;39.78;;
67108;SDS011;54027;50.786;7.058;2024-02-28T03:13:40;94.32;;;41.58;;
67108;SDS011;54027;50.786;7.058;2024-02-28T03:16:05;98.00;;;40.60;;
67108;SDS011;54027;50.786;7.058;2024-02-28T03:18:31;88.85;;;38.97;;
67108;SDS011;54027;50.786;7.058;2024-02-28T03:20:56;91.22;;;40.05;;
67108;SDS011;54027;50.786;7.058;2024-02-28T03:23:22;84.45;;;37.75;;
67108;SDS011;54027;50.786;7.058;2024-02-28T03:25:47;91.72;;;40.13;;
67108;SDS011;54027;50.786;7.058;2024-02-28T03:28:13;96.57;;;40.83;;
67108;SDS011;54027;50.786;7.058;2024-02-28T03:30:38;85.22;;;38.53;;
67108;SDS011;54027;50.786;7.058;2024-02-28T03:33:03;88.63;;;38.80;;
67108;SDS011;54027;50.786;7.058;2024-02-28T03:35:29;80.75;;;37.28;;
67108;SDS011;54027;50.786;7.058;2024-02-28T03:37:54;84.88;;;37.55;;
67108;SDS011;54027;50.786;7.058;2024-02-28T03:40:20;85.57;;;37.58;;
67108;SDS011;54027;50.786;7.058;2024-02-28T03:42:45;88.18;;;38.15;;
67108;SDS011;54027;50.786;7.058;2024-02-28T03:45:11;86.80;;;37.30;;
67108;SDS011;54027;50.786;7.058;2024-02-28T03:47:36;90.60;;;38.63;;
67108;SDS011;54027;50.786;7.058;2024-02-28T03:50:01;81.80;;;38.13;;
67108;SDS011;54027;50.786;7.058;2024-02-28T03:52:28;88.07;;;37.95;;
67108;SDS011;54027;50.786;7.058;2024-02-28T03:54:55;82.95;;;36.88;;
67108;SDS011;54027;50.786;7.058;2024-02-28T03:57:20;88.32;;;38.85;;
67108;SDS011;54027;50.786;7.058;2024-02-28T03:59:45;96.63;;;38.78;;
67108;SDS011;54027;50.786;7.058;2024-02-28T04:02:11;84.60;;;36.35;;
67108;SDS011;54027;50.786;7.058;2024-02-28T04:04:36;85.90;;;37.58;;
67108;SDS011;54027;50.786;7.058;2024-02-28T04:07:01;84.68;;;38.00;;
67108;SDS011;54027;50.786;7.058;2024-02-28T04:09:27;83.25;;;38.35;;
67108;SDS011;54027;50.786;7.058;2024-02-28T04:11:52;84.10;;;37.33;;
67108;SDS011;54027;50.786;7.058;2024-02-28T04:14:17;84.85;;;35.83;;
67108;SDS011;54027;50.786;7.058;2024-02-28T04:16:43;84.75;;;38.88;;
67108;SDS011;54027;50.786;7.058;2024-02-28T04:19:09;85.45;;;37.10;;
67108;SDS011;54027;50.786;7.058;2024-02-28T04:21:36;89.93;;;39.28;;
67108;SDS011;54027;50.786;7.058;2024-02-28T04:24:01;88.65;;;38.83;;
67108;SDS011;54027;50.786;7.058;2024-02-28T04:26:26;78.78;;;36.10;;
67108;SDS011;54027;50.786;7.058;2024-02-28T04:28:52;86.13;;;35.72;;
67108;SDS011;54027;50.786;7.058;2024-02-28T04:31:17;90.85;;;38.88;;
67108;SDS011;54027;50.786;7.058;2024-02-28T04:33:42;85.28;;;37.28;;
67108;SDS011;54027;50.786;7.058;2024-02-28T04:36:08;88.40;;;39.15;;
67108;SDS011;54027;50.786;7.058;2024-02-28T04:38:33;81.28;;;36.00;;
67108;SDS011;54027;50.786;7.058;2024-02-28T04:40:58;84.10;;;37.38;;
67108;SDS011;54027;50.786;7.058;2024-02-28T04:43:24;81.55;;;36.28;;
67108;SDS011;54027;50.786;7.058;2024-02-28T04:45:49;79.28;;;34.92;;
67108;SDS011;54027;50.786;7.058;2024-02-28T04:48:14;74.25;;;35.58;;
67108;SDS011;54027;50.786;7.058;2024-02-28T04:50:40;83.13;;;37.92;;
67108;SDS011;54027;50.786;7.058;2024-02-28T04:53:05;81.50;;;35.92;;
67108;SDS011;54027;50.786;7.058;2024-02-28T04:55:30;77.53;;;36.03;;
67108;SDS011;54027;50.786;7.058;2024-02-28T04:57:56;77.75;;;34.55;;
67108;SDS011;54027;50.786;7.058;2024-02-28T05:00:21;83.57;;;36.53;;
67108;SDS011;54027;50.786;7.058;2024-02-28T05:02:46;78.32;;;35.20;;
67108;SDS011;54027;50.786;7.058;2024-02-28T05:05:12;86.05;;;38.13;;
67108;SDS011;54027;50.786;7.058;2024-02-28T05:07:37;78.28;;;35.28;;
67108;SDS011;54027;50.786;7.058;2024-02-28T05:10:02;83.05;;;37.72;;
67108;SDS011;54027;50.786;7.058;2024-02-28T05:12:28;78.20;;;34.92;;
67108;SDS011;54027;50.786;7.058;2024-02-28T05:14:53;78.55;;;34.80;;
67108;SDS011;54027;50.786;7.058;2024-02-28T05:17:18;81.25;;;36.15;;
67108;SDS011;54027;50.786;7.058;2024-02-28T05:19:44;80.88;;;36.85;;
67108;SDS011;54027;50.786;7.058;2024-02-28T05:22:09;79.95;;;35.25;;
67108;SDS011;54027;50.786;7.058;2024-02-28T05:24:36;86.68;;;37.53;;
67108;SDS011;54027;50.786;7.058;2024-02-28T05:27:02;76.28;;;34.05;;
67108;SDS011;54027;50.786;7.058;2024-02-28T05:29:27;78.30;;;35.70;;
67108;SDS011;54027;50.786;7.058;2024-02-28T05:31:52;79.53;;;36.00;;
67108;SDS011;54027;50.786;7.058;2024-02-28T05:34:18;82.72;;;37.33;;
67108;SDS011;54027;50.786;7.058;2024-02-28T05:36:43;82.05;;;36.55;;
67108;SDS011;54027;50.786;7.058;2024-02-28T05:39:09;79.95;;;34.00;;
67108;SDS011;54027;50.786;7.058;2024-02-28T05:41:34;74.60;;;33.20;;
67108;SDS011;54027;50.786;7.058;2024-02-28T05:43:59;78.32;;;36.33;;
67108;SDS011;54027;50.786;7.058;2024-02-28T05:46:25;80.15;;;36.47;;
67108;SDS011;54027;50.786;7.058;2024-02-28T05:48:50;85.38;;;38.05;;
67108;SDS011;54027;50.786;7.058;2024-02-28T05:51:16;92.50;;;37.63;;
67108;SDS011;54027;50.786;7.058;2024-02-28T05:53:41;72.80;;;34.67;;
67108;SDS011;54027;50.786;7.058;2024-02-28T05:56:07;79.10;;;35.72;;
67108;SDS011;54027;50.786;7.058;2024-02-28T05:58:41;82.00;;;36.10;;
67108;SDS011;54027;50.786;7.058;2024-02-28T06:01:07;78.45;;;33.75;;
67108;SDS011;54027;50.786;7.058;2024-02-28T06:03:33;77.65;;;35.22;;
67108;SDS011;54027;50.786;7.058;2024-02-28T06:05:59;81.70;;;36.13;;
67108;SDS011;54027;50.786;7.058;2024-02-28T06:08:24;81.25;;;35.47;;
67108;SDS011;54027;50.786;7.058;2024-02-28T06:10:50;80.63;;;37.75;;
67108;SDS011;54027;50.786;7.058;2024-02-28T06:13:17;83.07;;;36.28;;
67108;SDS011;54027;50.786;7.058;2024-02-28T06:15:43;84.65;;;40.03;;
67108;SDS011;54027;50.786;7.058;2024-02-28T06:18:08;80.38;;;37.28;;
67108;SDS011;54027;50.786;7.058;2024-02-28T06:20:34;85.55;;;37.95;;
67108;SDS011;54027;50.786;7.058;2024-02-28T06:22:59;81.55;;;36.55;;
67108;SDS011;54027;50.786;7.058;2024-02-28T06:25:25;74.38;;;34.67;;
67108;SDS011;54027;50.786;7.058;2024-02-28T06:27:52;77.78;;;33.53;;
67108;SDS011;54027;50.786;7.058;2024-02-28T06:30:18;78.05;;;34.60;;
67108;SDS011;54027;50.786;7.058;2024-02-28T06:32:44;80.75;;;36.40;;
67108;SDS011;54027;50.786;7.058;2024-02-28T06:35:09;80.90;;;34.88;;
67108;SDS011;54027;50.786;7.058;2024-02-28T06:37:35;77.75;;;36.28;;
67108;SDS011;54027;50.786;7.058;2024-02-28T06:40:00;82.72;;;36.72;;
67108;SDS011;54027;50.786;7.058;2024-02-28T06:42:29;86.25;;;37.72;;
67108;SDS011;54027;50.786;7.058;2024-02-28T06:44:54;85.13;;;38.10;;
67108;SDS011;54027;50.786;7.058;2024-02-28T06:47:20;83.15;;;37.42;;
67108;SDS011;54027;50.786;7.058;2024-02-28T06:49:46;86.88;;;37.90;;
67108;SDS011;54027;50.786;7.058;2024-02-28T06:52:11;88.03;;;36.40;;
67108;SDS011;54027;50.786;7.058;2024-02-28T06:54:36;76.13;;;35.47;;
67108;SDS011;54027;50.786;7.058;2024-02-28T06:57:02;84.72;;;37.25;;
67108;SDS011;54027;50.786;7.058;2024-02-28T06:59:27;82.35;;;36.03;;
67108;SDS011;54027;50.786;7.058;2024-02-28T07:01:53;86.03;;;37.80;;
67108;SDS011;54027;50.786;7.058;2024-02-28T07:04:18;79.93;;;35.80;;
67108;SDS011;54027;50.786;7.058;2024-02-28T07:06:44;82.32;;;35.85;;
67108;SDS011;54027;50.786;7.058;2024-02-28T07:09:09;83.20;;;35.42;;
67108;SDS011;54027;50.786;7.058;2024-02-28T07:11:37;84.05;;;37.38;;
67108;SDS011;54027;50.786;7.058;2024-02-28T07:14:02;77.55;;;35.35;;
67108;SDS011;54027;50.786;7.058;2024-02-28T07:16:28;81.75;;;36.38;;
67108;SDS011;54027;50.786;7.058;2024-02-28T07:19:02;79.38;;;36.83;;
67108;SDS011;54027;50.786;7.058;2024-02-28T07:21:28;72.32;;;32.30;;
67108;SDS011;54027;50.786;7.058;2024-02-28T07:23:55;73.80;;;33.88;;
67108;SDS011;54027;50.786;7.058;2024-02-28T07:26:21;80.70;;;33.80;;
67108;SDS011;54027;50.786;7.058;2024-02-28T07:28:46;69.05;;;33.75;;
67108;SDS011;54027;50.786;7.058;2024-02-28T07:31:23;77.43;;;34.58;;
67108;SDS011;54027;50.786;7.058;2024-02-28T07:33:49;76.38;;;34.17;;
67108;SDS011;54027;50.786;7.058;2024-02-28T07:36:14;76.47;;;33.40;;
67108;SDS011;54027;50.786;7.058;2024-02-28T07:38:41;75.10;;;34.17;;
67108;SDS011;54027;50.786;7.058;2024-02-28T07:41:07;72.45;;;32.47;;
67108;SDS011;54027;50.786;7.058;2024-02-28T07:43:32;68.68;;;33.58;;
67108;SDS011;54027;50.786;7.058;2024-02-28T07:46:02;71.75;;;31.67;;
67108;SDS011;54027;50.786;7.058;2024-02-28T07:48:34;69.60;;;32.30;;
67108;SDS011;54027;50.786;7.058;2024-02-28T07:50:59;80.45;;;34.95;;
67108;SDS011;54027;50.786;7.058;2024-02-28T07:53:26;69.20;;;32.60;;
67108;SDS011;54027;50.786;7.058;2024-02-28T07:55:51;75.00;;;33.28;;
67108;SDS011;54027;50.786;7.058;2024-02-28T07:58:16;72.15;;;30.77;;
67108;SDS011;54027;50.786;7.058;2024-02-28T08:00:42;74.88;;;33.60;;
67108;SDS011;54027;50.786;7.058;2024-02-28T08:03:08;69.22;;;31.98;;
67108;SDS011;54027;50.786;7.058;2024-02-28T08:05:34;74.25;;;33.67;;
67108;SDS011;54027;50.786;7.058;2024-02-28T08:08:04;78.70;;;35.38;;
67108;SDS011;54027;50.786;7.058;2024-02-28T08:10:30;72.15;;;34.35;;
67108;SDS011;54027;50.786;7.058;2024-02-28T08:12:56;72.20;;;34.22;;
67108;SDS011;54027;50.786;7.058;2024-02-28T08:15:21;74.28;;;35.20;;
67108;SDS011;54027;50.786;7.058;2024-02-28T08:17:46;77.03;;;34.53;;
67108;SDS011;54027;50.786;7.058;2024-02-28T08:20:12;73.22;;;34.05;;
67108;SDS011;54027;50.786;7.058;2024-02-28T08:22:37;66.65;;;31.75;;
67108;SDS011;54027;50.786;7.058;2024-02-28T08:25:02;66.18;;;32.47;;
67108;SDS011;54027;50.786;7.058;2024-02-28T08:27:28;67.45;;;31.48;;
67108;SDS011;54027;50.786;7.058;2024-02-28T08:29:53;69.53;;;32.17;;
67108;SDS011;54027;50.786;7.058;2024-02-28T08:32:19;66.22;;;31.60;;
67108;SDS011;54027;50.786;7.058;2024-02-28T08:34:45;66.60;;;31.95;;
67108;SDS011;54027;50.786;7.058;2024-02-28T08:37:11;66.53;;;31.45;;
67108;SDS011;54027;50.786;7.058;2024-02-28T08:39:37;71.68;;;32.88;;
67108;SDS011;54027;50.786;7.058;2024-02-28T08:42:03;69.43;;;31.80;;
67108;SDS011;54027;50.786;7.058;2024-02-28T08:44:28;66.72;;;32.53;;
67108;SDS011;54027;50.786;7.058;2024-02-28T08:46:54;69.35;;;31.88;;
67108;SDS011;54027;50.786;7.058;2024-02-28T08:49:19;66.07;;;32.55;;
67108;SDS011;54027;50.786;7.058;2024-02-28T08:51:44;65.20;;;31.83;;
67108;SDS011;54027;50.786;7.058;2024-02-28T08:54:10;62.17;;;30.30;;
67108;SDS011;54027;50.786;7.058;2024-02-28T08:56:35;61.17;;;30.10;;
67108;SDS011;54027;50.786;7.058;2024-02-28T08:59:00;61.20;;;30.63;;
67108;SDS011;54027;50.786;7.058;2024-02-28T09:01:26;65.00;;;32.25;;
67108;SDS011;54027;50.786;7.058;2024-02-28T09:03:51;68.03;;;33.13;;
67108;SDS011;54027;50.786;7.058;2024-02-28T09:06:16;61.67;;;32.17;;
67108;SDS011;54027;50.786;7.058;2024-02-28T09:08:42;63.15;;;32.15;;
67108;SDS011;54027;50.786;7.058;2024-02-28T09:11:07;63.85;;;33.45;;
67108;SDS011;54027;50.786;7.058;2024-02-28T09:13:33;70.57;;;33.40;;
67108;SDS011;54027;50.786;7.058;2024-02-28T09:16:00;66.90;;;33.85;;
67108;SDS011;54027;50.786;7.058;2024-02-28T09:18:26;71.10;;;35.00;;
67108;SDS011;54027;50.786;7.058;2024-02-28T09:20:51;69.63;;;33.20;;
67108;SDS011;54027;50.786;7.058;2024-02-28T09:23:16;71.97;;;33.78;;
67108;SDS011;54027;50.786;7.058;2024-02-28T09:25:42;69.95;;;37.30;;
67108;SDS011;54027;50.786;7.058;2024-02-28T09:28:07;70.97;;;34.95;;
67108;SDS011;54027;50.786;7.058;2024-02-28T09:30:33;60.42;;;32.90;;
67108;SDS011;54027;50.786;7.058;2024-02-28T09:32:58;60.15;;;31.63;;
67108;SDS011;54027;50.786;7.058;2024-02-28T09:35:24;64.20;;;34.35;;
67108;SDS011;54027;50.786;7.058;2024-02-28T09:37:49;80.72;;;37.15;;
67108;SDS011;54027;50.786;7.058;2024-02-28T09:40:15;64.10;;;33.80;;
67108;SDS011;54027;50.786;7.058;2024-02-28T09:42:41;76.82;;;37.13;;
67108;SDS011;54027;50.786;7.058;2024-02-28T09:45:08;66.13;;;33.60;;
67108;SDS011;54027;50.786;7.058;2024-02-28T09:47:37;63.40;;;33.80;;
67108;SDS011;54027;50.786;7.058;2024-02-28T09:50:02;64.10;;;33.10;;
67108;SDS011;54027;50.786;7.058;2024-02-28T09:52:29;62.63;;;32.60;;
67108;SDS011;54027;50.786;7.058;2024-02-28T09:54:54;62.97;;;33.20;;
67108;SDS011;54027;50.786;7.058;2024-02-28T09:57:19;65.35;;;32.88;;
67108;SDS011;54027;50.786;7.058;2024-02-28T09:59:48;62.08;;;32.28;;
67108;SDS011;54027;50.786;7.058;2024-02-28T10:02:14;64.85;;;33.08;;
67108;SDS011;54027;50.786;7.058;2024-02-28T10:04:42;63.72;;;33.20;;
67108;SDS011;54027;50.786;7.058;2024-02-28T10:07:14;63.80;;;31.55;;
67108;SDS011;54027;50.786;7.058;2024-02-28T10:09:40;58.50;;;31.08;;
67108;SDS011;54027;50.786;7.058;2024-02-28T10:12:08;58.40;;;31.42;;
67108;SDS011;54027;50.786;7.058;2024-02-28T10:14:34;57.50;;;29.23;;
67108;SDS011;54027;50.786;7.058;2024-02-28T10:17:00;64.53;;;32.67;;
67108;SDS011;54027;50.786;7.058;2024-02-28T10:19:25;58.85;;;31.60;;
67108;SDS011;54027;50.786;7.058;2024-02-28T10:21:51;62.40;;;32.33;;
67108;SDS011;54027;50.786;7.058;2024-02-28T10:24:16;59.88;;;31.48;;
67108;SDS011;54027;50.786;7.058;2024-02-28T10:26:42;58.92;;;31.27;;
67108;SDS011;54027;50.786;7.058;2024-02-28T10:29:09;56.75;;;29.65;;
67108;SDS011;54027;50.786;7.058;2024-02-28T10:31:35;60.25;;;29.42;;
67108;SDS011;54027;50.786;7.058;2024-02-28T10:34:01;52.20;;;28.23;;
67108;SDS011;54027;50.786;7.058;2024-02-28T10:36:27;52.42;;;28.65;;
67108;SDS011;54027;50.786;7.058;2024-02-28T10:38:56;60.67;;;29.88;;
67108;SDS011;54027;50.786;7.058;2024-02-28T10:41:24;58.50;;;30.67;;
67108;SDS011;54027;50.786;7.058;2024-02-28T10:43:51;55.78;;;29.80;;
67108;SDS011;54027;50.786;7.058;2024-02-28T10:46:17;55.00;;;29.30;;
67108;SDS011;54027;50.786;7.058;2024-02-28T10:48:46;53.90;;;29.25;;
67108;SDS011;54027;50.786;7.058;2024-02-28T10:51:14;53.00;;;27.52;;
67108;SDS011;54027;50.786;7.058;2024-02-28T10:53:44;56.20;;;28.55;;
67108;SDS011;54027;50.786;7.058;2024-02-28T10:56:11;55.83;;;29.17;;
67108;SDS011;54027;50.786;7.058;2024-02-28T10:58:52;53.08;;;28.92;;
67108;SDS011;54027;50.786;7.058;2024-02-28T11:01:21;53.75;;;29.15;;
67108;SDS011;54027;50.786;7.058;2024-02-28T11:03:48;54.17;;;28.23;;
67108;SDS011;54027;50.786;7.058;2024-02-28T11:06:18;54.97;;;28.30;;
67108;SDS011;54027;50.786;7.058;2024-02-28T11:08:46;52.95;;;28.70;;
67108;SDS011;54027;50.786;7.058;2024-02-28T11:11:19;50.33;;;28.48;;
67108;SDS011;54027;50.786;7.058;2024-02-28T11:13:51;52.92;;;28.27;;
67108;SDS011;54027;50.786;7.058;2024-02-28T11:18:52;50.28;;;25.30;;
67108;SDS011;54027;50.786;7.058;2024-02-28T11:21:18;51.97;;;27.38;;
67108;SDS011;54027;50.786;7.058;2024-02-28T11:23:50;52.20;;;27.75;;
67108;SDS011;54027;50.786;7.058;2024-02-28T11:26:18;55.90;;;27.73;;
67108;SDS011;54027;50.786;7.058;2024-02-28T11:28:46;54.78;;;26.83;;
67108;SDS011;54027;50.786;7.058;2024-02-28T11:31:14;49.00;;;25.08;;
67108;SDS011;54027;50.786;7.058;2024-02-28T11:33:40;50.00;;;25.45;;
67108;SDS011;54027;50.786;7.058;2024-02-28T11:36:05;46.90;;;24.80;;
67108;SDS011;54027;50.786;7.058;2024-02-28T11:38:31;46.40;;;26.00;;
67108;SDS011;54027;50.786;7.058;2024-02-28T11:41:03;45.83;;;24.98;;
67108;SDS011;54027;50.786;7.058;2024-02-28T11:43:30;45.28;;;23.98;;
67108;SDS011;54027;50.786;7.058;2024-02-28T11:45:56;45.63;;;24.63;;
67108;SDS011;54027;50.786;7.058;2024-02-28T11:48:22;48.95;;;27.30;;
67108;SDS011;54027;50.786;7.058;2024-02-28T11:50:48;44.22;;;24.67;;
67108;SDS011;54027;50.786;7.058;2024-02-28T11:53:13;43.65;;;23.50;;
67108;SDS011;54027;50.786;7.058;2024-02-28T11:55:38;43.47;;;24.00;;
67108;SDS011;54027;50.786;7.058;2024-02-28T11:58:09;47.78;;;25.17;;
67108;SDS011;54027;50.786;7.058;2024-02-28T12:00:45;45.75;;;24.40;;
67108;SDS011;54027;50.786;7.058;2024-02-28T12:03:11;44.13;;;24.80;;
67108;SDS011;54027;50.786;7.058;2024-02-28T12:05:37;45.47;;;24.88;;
67108;SDS011;54027;50.786;7.058;2024-02-28T12:08:03;50.47;;;24.88;;
67108;SDS011;54027;50.786;7.058;2024-02-28T12:10:29;43.20;;;24.05;;
67108;SDS011;54027;50.786;7.058;2024-02-28T12:13:00;48.33;;;25.77;;
67108;SDS011;54027;50.786;7.058;2024-02-28T12:15:28;42.00;;;24.10;;
67108;SDS011;54027;50.786;7.058;2024-02-28T12:17:54;41.00;;;22.73;;
67108;SDS011;54027;50.786;7.058;2024-02-28T12:20:19;42.45;;;24.45;;
67108;SDS011;54027;50.786;7.058;2024-02-28T12:22:45;44.60;;;25.25;;
67108;SDS011;54027;50.786;7.058;2024-02-28T12:25:10;46.42;;;25.23;;
67108;SDS011;54027;50.786;7.058;2024-02-28T12:27:36;38.15;;;22.63;;
67108;SDS011;54027;50.786;7.058;2024-02-28T12:30:01;39.90;;;23.38;;
67108;SDS011;54027;50.786;7.058;2024-02-28T12:32:27;41.22;;;23.67;;
67108;SDS011;54027;50.786;7.058;2024-02-28T12:34:52;41.85;;;23.17;;
67108;SDS011;54027;50.786;7.058;2024-02-28T12:37:18;44.42;;;24.50;;
67108;SDS011;54027;50.786;7.058;2024-02-28T12:39:44;44.08;;;23.42;;
67108;SDS011;54027;50.786;7.058;2024-02-28T12:42:09;39.53;;;22.95;;
67108;SDS011;54027;50.786;7.058;2024-02-28T12:44:35;45.22;;;23.92;;
67108;SDS011;54027;50.786;7.058;2024-02-28T12:47:00;49.95;;;24.80;;
67108;SDS011;54027;50.786;7.058;2024-02-28T12:49:25;44.83;;;24.20;;
67108;SDS011;54027;50.786;7.058;2024-02-28T12:51:51;41.55;;;23.55;;
67108;SDS011;54027;50.786;7.058;2024-02-28T12:54:16;41.00;;;23.27;;
67108;SDS011;54027;50.786;7.058;2024-02-28T12:56:42;46.80;;;25.88;;
67108;SDS011;54027;50.786;7.058;2024-02-28T12:59:10;40.65;;;23.15;;
67108;SDS011;54027;50.786;7.058;2024-02-28T13:01:36;41.08;;;23.67;;
67108;SDS011;54027;50.786;7.058;2024-02-28T13:04:02;48.85;;;25.77;;
67108;SDS011;54027;50.786;7.058;2024-02-28T13:06:28;41.25;;;23.35;;
67108;SDS011;54027;50.786;7.058;2024-02-28T13:08:53;43.55;;;24.10;;
67108;SDS011;54027;50.786;7.058;2024-02-28T13:11:19;45.47;;;23.02;;
67108;SDS011;54027;50.786;7.058;2024-02-28T13:13:48;45.03;;;23.75;;
67108;SDS011;54027;50.786;7.058;2024-02-28T13:16:17;41.92;;;21.63;;
67108;SDS011;54027;50.786;7.058;2024-02-28T13:18:44;39.17;;;22.80;;
67108;SDS011;54027;50.786;7.058;2024-02-28T13:21:09;39.83;;;23.70;;
67108;SDS011;54027;50.786;7.058;2024-02-28T13:23:35;46.97;;;24.83;;
67108;SDS011;54027;50.786;7.058;2024-02-28T13:26:02;46.38;;;24.73;;
67108;SDS011;54027;50.786;7.058;2024-02-28T13:28:30;43.38;;;23.30;;
67108;SDS011;54027;50.786;7.058;2024-02-28T13:30:57;46.28;;;24.30;;
67108;SDS011;54027;50.786;7.058;2024-02-28T13:33:23;50.58;;;25.75;;
67108;SDS011;54027;50.786;7.058;2024-02-28T13:35:48;40.80;;;24.33;;
67108;SDS011;54027;50.786;7.058;2024-02-28T13:38:13;48.17;;;25.48;;
67108;SDS011;54027;50.786;7.058;2024-02-28T13:40:39;44.75;;;23.25;;
67108;SDS011;54027;50.786;7.058;2024-02-28T13:43:05;46.25;;;25.55;;
67108;SDS011;54027;50.786;7.058;2024-02-28T13:45:30;46.55;;;26.55;;
67108;SDS011;54027;50.786;7.058;2024-02-28T13:47:56;47.90;;;25.15;;
67108;SDS011;54027;50.786;7.058;2024-02-28T13:50:22;43.33;;;24.48;;
67108;SDS011;54027;50.786;7.058;2024-02-28T13:52:56;41.58;;;24.83;;
67108;SDS011;54027;50.786;7.058;2024-02-28T13:55:23;49.38;;;25.48;;
67108;SDS011;54027;50.786;7.058;2024-02-28T13:57:49;45.25;;;26.00;;
67108;SDS011;54027;50.786;7.058;2024-02-28T14:00:14;48.15;;;25.52;;
67108;SDS011;54027;50.786;7.058;2024-02-28T14:02:40;45.33;;;24.35;;
67108;SDS011;54027;50.786;7.058;2024-02-28T14:05:05;44.13;;;24.27;;
67108;SDS011;54027;50.786;7.058;2024-02-28T14:07:32;47.35;;;23.38;;
67108;SDS011;54027;50.786;7.058;2024-02-28T14:09:58;43.65;;;24.33;;
67108;SDS011;54027;50.786;7.058;2024-02-28T14:12:24;38.42;;;22.85;;
67108;SDS011;54027;50.786;7.058;2024-02-28T14:14:49;43.33;;;24.73;;
67108;SDS011;54027;50.786;7.058;2024-02-28T14:17:15;41.03;;;22.85;;